Time;durP1;ratioP1;P1;durP2;ratioP2;P2;SDS_P1;SDS_P2;PMS_P1;PMS_P2;Temp;Humidity;BMP_temperature;BMP_pressure;BME280_temperature;BME280_humidity;BME280_pressure;Samples;Min_cycle;Max_cycle;Signal;HPM_P1;HPM_P2
2021/12/14 00:00:52;;;;;;;9.80;7.60;;;;;;;1.08;82.74;97949.88;108084;1272;68009;-73
2021/12/14 00:03:28;;;;;;;10.00;7.60;;;;;;;1.06;82.69;97952.83;107984;1275;69426;-74
2021/12/14 00:05:57;;;;;;;11.10;7.50;;;;;;;1.06;82.77;97955.06;108056;1272;58897;-75
2021/12/14 00:08:31;;;;;;;9.00;6.30;;;;;;;1.06;82.75;97956.10;108131;1272;58913;-72
2021/12/14 00:16:11;;;;;;;9.20;6.90;;;;;;;0.98;82.68;97954.08;108113;1272;68497;-72
2021/12/14 00:18:41;;;;;;;10.60;6.90;;;;;;;0.96;82.61;97954.11;108060;1272;58912;-75
2021/12/14 00:21:31;;;;;;;9.60;7.00;;;;;;;0.95;82.62;97955.52;107482;1272;638472;-75
2021/12/14 00:24:06;;;;;;;9.90;7.10;;;;;;;0.95;82.77;97957.73;108073;1272;69841;-72
2021/12/14 00:26:46;;;;;;;8.50;6.20;;;;;;;0.96;82.81;97958.93;108048;1271;67941;-71
2021/12/14 00:29:26;;;;;;;9.40;7.50;;;;;;;0.97;82.72;97958.91;108007;1275;69335;-69
2021/12/14 00:31:59;;;;;;;7.70;6.30;;;;;;;0.95;82.66;97958.93;108043;1275;58912;-70
2021/12/14 00:34:41;;;;;;;10.10;7.60;;;;;;;0.94;82.71;97957.62;108058;1272;58894;-70
2021/12/14 00:37:22;;;;;;;10.30;8.10;;;;;;;0.93;82.76;97954.20;108179;1272;70555;-71
2021/12/14 00:39:54;;;;;;;7.60;6.20;;;;;;;0.92;82.88;97955.77;108017;1272;67173;-73
2021/12/14 00:42:26;;;;;;;8.80;6.50;;;;;;;0.92;82.94;97961.60;108081;1273;69425;-72
2021/12/14 00:44:55;;;;;;;8.30;6.80;;;;;;;0.91;82.94;97963.52;108046;1272;58945;-74
2021/12/14 00:47:26;;;;;;;7.40;5.40;;;;;;;0.91;83.02;97967.96;108073;1272;58944;-73
2021/12/14 00:49:55;;;;;;;9.40;7.10;;;;;;;0.92;83.03;97968.48;107976;1272;70847;-70
2021/12/14 00:52:26;;;;;;;10.60;7.00;;;;;;;0.92;83.02;97967.24;108118;1269;68242;-72
2021/12/14 00:54:55;;;;;;;7.20;4.90;;;;;;;0.92;83.13;97966.73;108143;1269;69259;-69
2021/12/14 00:57:25;;;;;;;9.10;7.40;;;;;;;0.93;83.02;97966.73;108125;1270;58849;-73
2021/12/14 00:59:54;;;;;;;11.10;8.00;;;;;;;0.92;83.02;97968.10;108156;1272;58917;-70
2021/12/14 01:02:25;;;;;;;8.70;6.30;;;;;;;0.92;83.00;97970.36;108306;1269;70212;-72
2021/12/14 01:05:00;;;;;;;10.50;7.30;;;;;;;0.90;83.14;97970.92;108339;1269;67878;-73
2021/12/14 01:07:31;;;;;;;8.10;6.00;;;;;;;0.88;82.92;97974.06;108008;1273;68596;-70
2021/12/14 01:10:04;;;;;;;;;;;;;;;0.87;82.94;97975.77;108113;1269;58939;-71
2021/12/14 01:12:49;;;;;;;7.70;5.90;;;;;;;0.87;82.74;97969.95;108049;1272;58941;-70
2021/12/14 01:18:33;;;;;;;6.30;5.60;;;;;;;0.85;82.64;97967.45;108139;1272;67637;-71
2021/12/14 01:21:25;;;;;;;7.90;5.90;;;;;;;0.84;82.46;97974.34;108113;1270;68743;-70
2021/12/14 01:24:06;;;;;;;7.00;5.20;;;;;;;0.81;82.34;97975.27;108214;1272;58948;-69
2021/12/14 01:26:40;;;;;;;7.50;5.60;;;;;;;0.80;82.49;97979.43;108345;1272;58957;-69
2021/12/14 01:29:11;;;;;;;8.60;6.00;;;;;;;0.79;82.58;97980.64;108093;1272;68888;-72
2021/12/14 01:31:42;;;;;;;6.90;5.40;;;;;;;0.80;82.59;97979.26;108047;1273;67861;-75
2021/12/14 01:34:22;;;;;;;6.50;5.50;;;;;;;0.78;82.54;97978.92;108040;1275;67468;-72
2021/12/14 01:36:57;;;;;;;;;;;;;;;0.79;82.65;97976.88;108083;1272;58944;-68
2021/12/14 01:42:09;;;;;;;6.60;4.70;;;;;;;0.76;82.59;97974.69;108017;1272;70584;-71
2021/12/14 01:44:51;;;;;;;6.10;4.80;;;;;;;0.76;82.60;97974.35;107979;1275;68651;-71
2021/12/14 01:47:34;;;;;;;6.70;5.40;;;;;;;0.75;82.58;97970.77;107977;1273;68479;-69
2021/12/14 01:50:41;;;;;;;7.10;5.20;;;;;;;0.75;82.63;97969.60;107991;1272;58973;-71
2021/12/14 01:53:39;;;;;;;7.70;5.50;;;;;;;0.76;82.68;97968.20;108054;1272;58906;-72
2021/12/14 01:56:14;;;;;;;7.00;5.00;;;;;;;0.74;82.61;97965.84;108157;1272;70015;-76
2021/12/14 01:58:52;;;;;;;10.70;7.60;;;;;;;0.74;82.72;97960.88;108130;1272;67760;-73
2021/12/14 02:01:37;;;;;;;8.00;6.00;;;;;;;0.73;82.77;97958.98;108067;1270;69261;-76
2021/12/14 02:04:17;;;;;;;7.70;5.30;;;;;;;0.71;82.58;97960.60;108112;1272;58906;-77
2021/12/14 02:07:04;;;;;;;6.40;5.70;;;;;;;0.69;82.51;97960.80;108140;1272;58890;-76
2021/12/14 02:09:39;;;;;;;8.10;6.20;;;;;;;0.67;82.65;97965.65;107929;1274;70567;-70
2021/12/14 02:12:14;;;;;;;7.50;6.10;;;;;;;0.68;82.61;97971.11;108094;1272;68434;-71
2021/12/14 02:14:46;;;;;;;7.10;5.60;;;;;;;0.67;82.69;97971.66;108109;1272;69425;-75
2021/12/14 02:17:23;;;;;;;6.50;4.70;;;;;;;0.65;82.68;97973.44;108063;1272;58958;-72
2021/12/14 02:19:53;;;;;;;7.70;5.80;;;;;;;0.66;82.63;97976.33;108119;1272;58890;-70
2021/12/14 02:22:26;;;;;;;6.80;6.10;;;;;;;0.67;82.50;97975.45;108052;1272;68847;-72
2021/12/14 02:24:56;;;;;;;7.10;5.40;;;;;;;0.67;82.50;97978.86;108081;1272;68561;-74
2021/12/14 02:27:34;;;;;;;7.30;5.60;;;;;;;0.67;82.44;97984.00;108021;1272;68650;-75
2021/12/14 02:30:12;;;;;;;8.60;6.40;;;;;;;0.67;82.31;97985.58;107977;1272;58964;-72
2021/12/14 02:32:42;;;;;;;6.50;5.00;;;;;;;0.63;82.15;97982.73;108101;1271;58836;-70
2021/12/14 02:35:13;;;;;;;;;;;;;;;0.62;82.32;97986.03;108033;1272;69792;-72
2021/12/14 02:37:49;;;;;;;7.10;5.50;;;;;;;0.60;82.26;97985.91;108126;1269;68614;-73
2021/12/14 02:43:18;;;;;;;5.00;3.90;;;;;;;0.59;82.34;97987.98;108128;1272;58907;-70
2021/12/14 02:45:49;;;;;;;5.60;4.60;;;;;;;0.60;82.34;97990.02;108081;1272;58855;-68
2021/12/14 02:48:19;;;;;;;5.60;4.60;;;;;;;0.60;82.38;97992.25;108021;1272;70299;-73
2021/12/14 02:50:49;;;;;;;7.70;6.30;;;;;;;0.60;82.30;97994.64;108131;1272;68475;-76
2021/12/14 02:53:20;;;;;;;7.90;5.90;;;;;;;0.61;82.30;97994.48;108010;1272;69385;-74
2021/12/14 02:55:51;;;;;;;6.20;4.70;;;;;;;0.60;82.20;97998.59;108027;1269;58904;-76
2021/12/14 02:58:21;;;;;;;5.80;4.90;;;;;;;0.61;82.18;98000.13;107985;1275;58906;-76
2021/12/14 03:00:52;;;;;;;7.30;4.70;;;;;;;0.61;82.19;97998.75;108106;1272;70563;-73
2021/12/14 03:03:22;;;;;;;6.60;5.60;;;;;;;0.60;82.14;98000.48;108096;1272;68448;-71
2021/12/14 03:05:52;;;;;;;8.70;5.90;;;;;;;0.60;82.19;97998.08;108004;1273;68871;-75
2021/12/14 03:08:26;;;;;;;9.60;7.30;;;;;;;0.61;82.36;97998.40;108083;1272;58827;-70
2021/12/14 03:11:12;;;;;;;7.80;6.10;;;;;;;0.61;82.39;97998.75;108205;1272;58964;-68
2021/12/14 03:13:48;;;;;;;8.70;6.40;;;;;;;0.62;82.43;98001.64;108122;1272;69811;-73
2021/12/14 03:16:25;;;;;;;6.90;6.10;;;;;;;0.59;82.35;98000.52;108106;1272;67962;-70
2021/12/14 03:18:57;;;;;;;6.80;5.30;;;;;;;0.58;82.51;97998.47;108131;1272;69414;-76
2021/12/14 03:21:32;;;;;;;5.90;4.90;;;;;;;0.59;82.44;98000.85;108135;1272;58884;-74
2021/12/14 03:24:11;;;;;;;7.70;6.00;;;;;;;0.60;82.48;98001.52;108100;1274;58900;-71
2021/12/14 03:26:51;;;;;;;8.20;6.70;;;;;;;0.59;82.69;98002.05;108175;1272;69761;-69
2021/12/14 03:29:29;;;;;;;6.00;5.00;;;;;;;0.59;82.72;98004.45;108010;1275;68609;-74
2021/12/14 03:31:59;;;;;;;7.70;5.40;;;;;;;0.61;82.59;98000.29;108000;1272;68711;-69
2021/12/14 03:34:38;;;;;;;6.40;5.40;;;;;;;0.62;82.72;97998.56;108338;1269;58877;-69
2021/12/14 03:37:19;;;;;;;5.70;4.20;;;;;;;0.62;82.51;97999.05;108106;1272;58915;-71
2021/12/14 03:39:53;;;;;;;6.40;5.50;;;;;;;0.63;82.53;97999.37;108028;1272;70884;-70
2021/12/14 03:42:35;;;;;;;5.80;5.00;;;;;;;0.63;82.50;98000.92;108108;1272;68462;-70
2021/12/14 03:45:17;;;;;;;7.00;5.00;;;;;;;0.63;82.53;97997.65;108072;1272;69433;-71
2021/12/14 03:47:52;;;;;;;6.30;5.10;;;;;;;0.64;82.50;97995.59;108061;1272;58973;-71
2021/12/14 03:50:30;;;;;;;5.90;4.20;;;;;;;0.64;82.46;97997.13;108088;1272;58901;-72
2021/12/14 03:53:00;;;;;;;7.20;6.20;;;;;;;0.62;82.39;97997.34;108052;1274;70899;-69
2021/12/14 03:55:37;;;;;;;7.00;5.20;;;;;;;0.60;82.45;98000.48;108289;1269;67677;-72
2021/12/14 03:58:10;;;;;;;7.80;6.90;;;;;;;0.59;82.41;97999.82;108112;1272;69466;-71
2021/12/14 04:00:50;;;;;;;7.70;5.60;;;;;;;0.56;82.64;97997.33;108139;1272;58899;-71
2021/12/14 04:03:23;;;;;;;9.50;7.70;;;;;;;0.53;82.64;97993.63;108167;1272;58878;-70
2021/12/14 04:06:20;;;;;;;9.50;7.50;;;;;;;0.46;83.14;97994.45;108058;1272;69973;-72
2021/12/14 04:08:54;;;;;;;8.20;6.70;;;;;;;0.43;82.95;97998.29;108119;1273;68643;-72
2021/12/14 04:11:24;;;;;;;8.40;6.90;;;;;;;0.40;83.22;98004.04;108034;1272;68444;-75
2021/12/14 04:13:54;;;;;;;9.40;7.40;;;;;;;0.36;83.32;98002.06;108062;1272;58929;-72
2021/12/14 04:16:32;;;;;;;8.00;6.10;;;;;;;0.34;83.17;98003.83;108139;1272;58861;-70
2021/12/14 04:19:09;;;;;;;10.70;7.80;;;;;;;0.34;83.00;98001.44;108078;1272;69952;-72
2021/12/14 04:21:41;;;;;;;9.90;8.30;;;;;;;0.30;83.41;98000.31;108104;1272;68542;-70
2021/12/14 04:24:19;;;;;;;11.10;7.70;;;;;;;0.28;83.39;98002.94;108327;1269;68684;-74
2021/12/14 04:26:53;;;;;;;9.80;7.70;;;;;;;0.28;83.38;98006.70;108335;1268;58950;-69
2021/12/14 04:29:23;;;;;;;10.00;8.10;;;;;;;0.29;83.57;98010.29;108377;1269;58877;-72
2021/12/14 04:31:53;;;;;;;11.10;7.90;;;;;;;0.27;83.51;98016.16;108110;1272;70731;-72
2021/12/14 04:34:23;;;;;;;12.20;8.60;;;;;;;0.25;83.61;98016.53;108361;1269;68755;-70
2021/12/14 04:36:54;;;;;;;10.30;7.60;;;;;;;0.23;83.42;98016.92;108405;1270;69243;-72
2021/12/14 04:53:37;;;;;;;10.00;7.60;;;;;;;0.43;83.20;98029.86;108211;1272;58894;-69
2021/12/14 04:56:12;;;;;;;7.30;6.00;;;;;;;0.42;83.45;98032.79;108120;1273;58865;-69
2021/12/14 04:58:53;;;;;;;6.90;5.60;;;;;;;0.44;83.29;98034.63;108110;1272;70578;-72
2021/12/14 05:01:24;;;;;;;7.90;5.00;;;;;;;0.46;83.20;98038.02;107887;1272;68612;-73
2021/12/14 05:03:58;;;;;;;6.20;5.20;;;;;;;0.48;83.19;98040.04;108084;1272;69462;-72
2021/12/14 05:06:44;;;;;;;7.60;5.90;;;;;;;0.51;83.20;98041.86;108024;1272;58914;-74
2021/12/14 05:09:24;;;;;;;9.50;7.10;;;;;;;0.50;83.71;98042.20;108156;1272;58900;-69
2021/12/14 05:11:59;;;;;;;11.70;8.40;;;;;;;0.50;83.63;98046.33;108005;1275;70827;-73
2021/12/14 05:14:33;;;;;;;6.50;5.30;;;;;;;0.49;84.10;98041.89;108048;1272;67758;-70
2021/12/14 05:17:07;;;;;;;7.10;5.40;;;;;;;0.51;83.64;98045.11;108076;1272;68531;-70
2021/12/14 05:19:40;;;;;;;7.30;5.30;;;;;;;0.53;83.49;98045.06;108117;1272;58945;-70
2021/12/14 05:22:30;;;;;;;6.70;5.70;;;;;;;0.55;83.58;98049.99;108016;1275;58942;-72
2021/12/14 05:25:17;;;;;;;8.30;6.60;;;;;;;0.55;83.65;98049.83;107999;1272;70812;-73
2021/12/14 05:27:56;;;;;;;8.70;7.70;;;;;;;0.55;83.76;98049.65;108047;1272;68744;-70
2021/12/14 05:30:29;;;;;;;;;;;;;;;0.56;83.83;98051.71;108331;1269;68555;-70
2021/12/14 05:33:16;;;;;;;5.80;5.10;;;;;;;0.56;83.80;98054.10;108270;1271;58942;-69
2021/12/14 05:35:49;;;;;;;10.80;8.30;;;;;;;0.58;83.62;98053.36;108124;1272;58913;-70
2021/12/14 05:38:27;;;;;;;5.00;4.40;;;;;;;0.57;83.77;98049.77;108172;1270;70735;-73
2021/12/14 05:41:12;;;;;;;7.60;5.80;;;;;;;0.59;83.40;98052.47;108216;1272;68747;-70
2021/12/14 05:43:44;;;;;;;7.80;6.50;;;;;;;0.60;83.30;98056.40;108267;1271;69540;-72
2021/12/14 05:46:22;;;;;;;7.50;5.30;;;;;;;0.62;83.24;98058.41;108093;1273;58944;-70
2021/12/14 05:49:11;;;;;;;6.10;4.80;;;;;;;0.63;83.11;98059.95;108300;1269;58954;-75
2021/12/14 05:51:41;;;;;;;7.70;5.70;;;;;;;0.64;83.04;98061.46;108097;1273;70103;-71
2021/12/14 05:54:10;;;;;;;7.10;6.10;;;;;;;0.65;82.95;98061.79;108180;1270;68618;-75
2021/12/14 05:56:41;;;;;;;6.10;5.00;;;;;;;0.64;83.21;98065.90;108314;1272;68452;-75
2021/12/14 05:59:10;;;;;;;5.90;4.80;;;;;;;0.65;83.06;98062.64;108290;1269;58926;-70
2021/12/14 06:01:39;;;;;;;8.30;6.00;;;;;;;0.67;82.84;98062.23;108065;1272;58972;-72
2021/12/14 06:04:09;;;;;;;8.00;6.20;;;;;;;0.67;82.77;98063.28;108072;1272;70828;-72
2021/12/14 06:06:54;;;;;;;8.50;6.00;;;;;;;0.66;82.80;98062.63;108140;1269;68700;-72
2021/12/14 06:09:30;;;;;;;8.90;6.40;;;;;;;0.64;82.74;98061.98;108155;1272;69480;-71
2021/12/14 06:12:29;;;;;;;7.20;5.30;;;;;;;0.63;82.77;98069.37;108201;1272;58960;-74
2021/12/14 06:15:01;;;;;;;8.00;6.10;;;;;;;0.63;82.80;98075.19;108302;1269;59363;-71
2021/12/14 06:17:33;;;;;;;7.20;5.90;;;;;;;0.63;82.79;98078.64;108084;1272;71350;-73
2021/12/14 06:20:11;;;;;;;8.10;6.60;;;;;;;0.64;82.80;98078.95;108161;1272;67940;-70
2021/12/14 06:22:43;;;;;;;8.40;6.50;;;;;;;0.63;82.81;98083.95;108032;1272;68515;-71
2021/12/14 06:25:27;;;;;;;8.10;6.80;;;;;;;0.63;82.78;98084.46;108017;1272;58903;-70
2021/12/14 06:28:01;;;;;;;8.40;6.40;;;;;;;0.62;82.82;98085.85;108068;1272;58960;-73
2021/12/14 06:30:33;;;;;;;8.00;6.10;;;;;;;0.62;82.75;98085.52;108142;1272;70867;-71
2021/12/14 06:33:07;;;;;;;7.70;6.10;;;;;;;0.62;82.77;98089.14;108138;1272;68646;-74
2021/12/14 06:35:44;;;;;;;8.40;6.00;;;;;;;0.62;82.78;98089.63;108141;1272;69483;-75
2021/12/14 06:38:26;;;;;;;8.20;6.70;;;;;;;0.63;82.78;98087.89;108057;1274;58915;-70
2021/12/14 06:41:03;;;;;;;11.50;8.20;;;;;;;0.64;82.82;98089.58;108118;1273;58907;-73
2021/12/14 06:43:49;;;;;;;9.00;6.80;;;;;;;0.62;82.86;98093.40;108103;1272;70020;-71
2021/12/14 06:46:23;;;;;;;10.90;8.20;;;;;;;0.63;82.87;98093.21;108095;1272;68634;-71
2021/12/14 06:49:09;;;;;;;7.70;5.50;;;;;;;0.63;82.82;98100.25;107981;1275;68703;-72
2021/12/14 06:51:43;;;;;;;7.90;6.40;;;;;;;0.64;82.78;98104.35;108121;1272;58951;-72
2021/12/14 06:54:26;;;;;;;9.60;7.60;;;;;;;0.66;82.82;98102.93;108073;1273;59000;-70
2021/12/14 06:57:03;;;;;;;9.90;8.10;;;;;;;0.68;82.90;98107.00;108137;1270;70810;-74
2021/12/14 06:59:47;;;;;;;8.00;6.00;;;;;;;0.70;82.82;98109.70;107920;1275;68928;-70
2021/12/14 07:02:35;;;;;;;9.90;6.90;;;;;;;0.72;82.80;98111.02;108075;1272;68667;-73
2021/12/14 07:05:17;;;;;;;13.00;8.90;;;;;;;0.73;82.83;98109.45;108145;1272;58903;-68
2021/12/14 07:07:50;;;;;;;11.20;7.60;;;;;;;0.74;82.78;98109.79;108022;1271;58904;-74
2021/12/14 07:10:20;;;;;;;11.60;9.00;;;;;;;0.76;82.69;98105.11;108019;1274;70909;-68
2021/12/14 07:12:51;;;;;;;10.10;7.40;;;;;;;0.79;82.55;98104.69;108003;1274;68701;-69
2021/12/14 07:15:27;;;;;;;11.30;8.60;;;;;;;0.81;82.23;98103.80;108078;1272;69324;-71
2021/12/14 07:18:03;;;;;;;10.90;8.80;;;;;;;0.83;82.18;98104.61;108135;1272;58906;-74
2021/12/14 07:20:38;;;;;;;12.10;8.50;;;;;;;0.86;82.34;98107.79;108113;1272;58882;-72
2021/12/14 07:23:18;;;;;;;10.20;8.00;;;;;;;0.90;82.04;98109.60;107992;1271;71327;-74
2021/12/14 07:26:20;;;;;;;13.60;10.10;;;;;;;0.94;82.16;98113.95;108065;1271;69137;-70
2021/12/14 07:28:49;;;;;;;10.20;8.70;;;;;;;0.94;81.95;98116.01;107715;1279;68790;-73
2021/12/14 07:31:22;;;;;;;13.80;10.00;;;;;;;0.98;82.08;98118.84;107734;1278;59012;-73
2021/12/14 07:33:55;;;;;;;9.80;8.00;;;;;;;1.01;81.52;98119.98;107689;1278;58871;-69
2021/12/14 07:36:28;;;;;;;8.80;6.10;;;;;;;1.06;81.77;98121.59;107766;1278;70839;-74
2021/12/14 07:39:01;;;;;;;12.10;8.70;;;;;;;1.10;81.81;98117.88;107654;1279;68356;-71
2021/12/14 07:41:42;;;;;;;13.20;9.30;;;;;;;1.13;81.51;98113.52;107684;1278;69446;-70
2021/12/14 07:44:26;;;;;;;14.70;10.00;;;;;;;1.16;81.40;98117.23;107667;1278;58944;-72
2021/12/14 07:47:07;;;;;;;16.70;11.00;;;;;;;1.17;80.98;98118.23;107674;1278;59004;-71
2021/12/14 07:49:42;;;;;;;12.20;7.90;;;;;;;1.19;81.06;98116.63;107695;1278;69861;-72
2021/12/14 07:52:19;;;;;;;13.30;10.30;;;;;;;1.19;80.66;98117.85;107796;1278;68455;-69
2021/12/14 07:54:55;;;;;;;12.90;10.10;;;;;;;1.12;80.03;98120.06;107728;1278;69497;-72
2021/12/14 07:57:36;;;;;;;10.60;8.80;;;;;;;1.12;80.03;98120.09;107725;1278;59376;-71
2021/12/14 08:00:05;;;;;;;13.40;10.10;;;;;;;1.15;80.43;98122.39;107743;1278;58951;-72
2021/12/14 08:02:43;;;;;;;10.40;7.30;;;;;;;1.19;80.50;98122.45;107712;1278;70514;-74
2021/12/14 08:05:27;;;;;;;17.10;12.20;;;;;;;1.20;80.28;98129.65;107912;1274;68908;-75
2021/12/14 08:08:06;;;;;;;11.90;8.90;;;;;;;1.11;79.92;98131.94;108092;1272;69184;-74
2021/12/14 08:10:44;;;;;;;18.40;12.70;;;;;;;1.10;80.28;98133.34;108187;1273;58982;-75
2021/12/14 08:13:24;;;;;;;16.10;11.20;;;;;;;1.08;80.21;98135.98;108117;1272;58899;-74
2021/12/14 08:15:59;;;;;;;13.40;9.00;;;;;;;1.07;80.15;98145.27;108082;1272;69849;-73
2021/12/14 08:18:34;;;;;;;13.10;9.30;;;;;;;1.12;80.44;98142.20;108186;1272;68447;-71
2021/12/14 08:21:07;;;;;;;11.20;7.00;;;;;;;1.19;80.52;98136.56;107859;1273;613146;-74
2021/12/14 08:24:01;;;;;;;13.40;10.30;;;;;;;1.26;80.66;98139.48;108278;1272;58876;-72
2021/12/14 08:26:35;;;;;;;16.30;11.20;;;;;;;1.34;80.83;98144.10;108344;1269;59324;-71
2021/12/14 08:29:37;;;;;;;15.80;10.70;;;;;;;1.36;79.99;98144.75;108161;1272;70804;-73
2021/12/14 08:32:09;;;;;;;17.80;11.90;;;;;;;1.35;80.04;98144.92;107739;1278;68659;-71
2021/12/14 08:34:42;;;;;;;21.00;13.60;;;;;;;1.22;80.28;98148.50;107721;1277;68682;-73
2021/12/14 08:37:56;;;;;;;13.90;10.00;;;;;;;1.18;80.20;98144.99;107690;1277;58898;-71
2021/12/14 08:40:32;;;;;;;18.60;13.00;;;;;;;1.21;81.05;98145.60;107692;1276;59326;-73
2021/12/14 08:43:21;;;;;;;15.70;11.00;;;;;;;1.23;80.39;98142.14;107726;1279;70885;-74
2021/12/14 08:45:57;;;;;;;11.60;8.40;;;;;;;1.31;80.65;98142.45;107710;1280;68630;-75
2021/12/14 08:48:32;;;;;;;20.00;14.20;;;;;;;1.39;80.60;98142.27;107761;1278;69458;-75
2021/12/14 08:51:13;;;;;;;18.60;13.90;;;;;;;1.40;80.11;98142.92;107760;1278;58925;-72
2021/12/14 08:53:47;;;;;;;19.60;13.00;;;;;;;1.40;80.06;98141.73;107714;1278;58945;-74
2021/12/14 08:56:19;;;;;;;17.00;13.70;;;;;;;1.41;80.23;98139.46;107560;1280;70841;-73
2021/12/14 08:58:49;;;;;;;14.70;10.70;;;;;;;1.44;80.25;98140.77;107752;1278;68695;-74
2021/12/14 09:01:23;;;;;;;17.40;13.20;;;;;;;1.45;79.76;98143.99;107689;1277;69460;-72
2021/12/14 09:03:57;;;;;;;18.40;12.90;;;;;;;1.48;80.11;98144.96;107748;1278;59003;-73
2021/12/14 09:06:32;;;;;;;23.50;15.40;;;;;;;1.55;80.32;98146.84;107684;1280;58951;-71
2021/12/14 09:09:06;;;;;;;13.50;9.90;;;;;;;1.62;80.09;98146.52;107983;1272;70944;-75
2021/12/14 09:11:38;;;;;;;23.90;16.40;;;;;;;1.67;80.01;98143.98;108217;1272;68800;-73
2021/12/14 09:14:13;;;;;;;20.10;13.80;;;;;;;1.66;79.63;98136.42;108267;1269;69498;-74
2021/12/14 09:16:48;;;;;;;23.90;15.60;;;;;;;1.66;79.69;98139.34;108293;1273;58989;-68
2021/12/14 09:19:27;;;;;;;22.60;15.50;;;;;;;1.66;79.62;98137.45;108278;1273;58908;-71
2021/12/14 09:21:59;;;;;;;22.60;15.50;;;;;;;1.64;79.18;98134.25;108309;1273;70042;-75
2021/12/14 09:24:30;;;;;;;24.70;17.70;;;;;;;1.62;79.46;98134.64;108360;1270;68120;-72
2021/12/14 09:27:04;;;;;;;25.90;18.70;;;;;;;1.59;80.09;98136.45;108286;1272;69435;-75
2021/12/14 09:29:34;;;;;;;23.00;16.60;;;;;;;1.61;80.12;98135.70;108414;1270;59005;-74
2021/12/14 09:32:07;;;;;;;16.00;11.00;;;;;;;1.65;80.19;98131.83;108195;1272;58982;-76
2021/12/14 09:34:39;;;;;;;16.90;10.60;;;;;;;1.74;80.23;98133.83;108308;1270;71393;-74
2021/12/14 09:37:11;;;;;;;15.90;11.80;;;;;;;1.79;80.02;98133.33;108428;1272;68479;-75
2021/12/14 09:39:45;;;;;;;18.60;11.90;;;;;;;1.84;79.97;98133.55;108314;1272;67680;-73
2021/12/14 09:42:20;;;;;;;20.50;15.70;;;;;;;1.88;79.39;98130.02;108301;1273;58922;-75
2021/12/14 09:44:52;;;;;;;33.20;19.90;;;;;;;1.89;79.31;98127.92;108339;1273;58979;-75
2021/12/14 09:47:29;;;;;;;19.20;13.10;;;;;;;1.87;79.56;98122.31;108215;1273;71426;-72
2021/12/14 09:50:03;;;;;;;15.60;10.20;;;;;;;1.92;79.59;98123.89;108363;1270;69546;-71
2021/12/14 09:52:36;;;;;;;18.10;12.60;;;;;;;1.98;79.72;98122.16;108336;1272;70161;-69
2021/12/14 09:55:17;;;;;;;17.80;11.10;;;;;;;2.05;79.50;98121.64;108363;1270;58886;-68
2021/12/14 09:57:56;;;;;;;13.30;9.40;;;;;;;2.10;79.34;98121.85;108223;1274;58862;-69
2021/12/14 10:00:26;;;;;;;15.50;10.60;;;;;;;2.11;77.63;98122.70;108365;1273;70000;-76
2021/12/14 10:03:00;;;;;;;15.40;10.60;;;;;;;2.10;77.50;98124.60;108296;1272;68640;-69
2021/12/14 10:05:40;;;;;;;15.10;10.20;;;;;;;2.14;78.07;98123.81;108297;1269;69453;-68
2021/12/14 10:08:17;;;;;;;14.20;10.60;;;;;;;2.21;78.16;98123.96;108477;1269;58912;-69
2021/12/14 10:11:04;;;;;;;14.80;10.40;;;;;;;2.28;78.25;98124.63;108313;1272;58877;-70
2021/12/14 10:13:39;;;;;;;16.10;11.40;;;;;;;2.34;78.05;98120.31;108354;1272;70718;-69
2021/12/14 10:16:11;;;;;;;19.10;14.10;;;;;;;2.38;78.31;98114.35;108395;1272;67849;-68
2021/12/14 10:18:48;;;;;;;18.20;14.20;;;;;;;2.43;78.16;98110.93;108243;1272;69409;-67
2021/12/14 10:21:30;;;;;;;12.40;8.70;;;;;;;2.45;77.70;98111.23;108462;1272;58894;-69
2021/12/14 10:24:05;;;;;;;12.80;9.80;;;;;;;2.46;77.70;98104.13;108242;1272;58957;-68
2021/12/14 10:26:42;;;;;;;15.40;11.20;;;;;;;2.49;77.88;98100.93;108239;1272;70823;-69
2021/12/14 10:29:13;;;;;;;11.90;8.50;;;;;;;2.54;77.79;98098.05;108211;1272;67821;-68
2021/12/14 10:32:06;;;;;;;18.50;13.20;;;;;;;2.60;77.86;98094.29;108307;1269;69504;-68
2021/12/14 10:34:45;;;;;;;12.60;8.70;;;;;;;2.59;77.08;98097.39;108351;1273;58967;-69
2021/12/14 10:37:24;;;;;;;16.50;10.10;;;;;;;2.58;77.32;98097.09;108362;1273;59258;-69
2021/12/14 10:43:07;;;;;;;12.30;9.40;;;;;;;2.50;77.03;98092.83;108299;1273;68597;-69
2021/12/14 10:45:47;;;;;;;14.40;10.90;;;;;;;2.49;77.06;98087.54;108003;1274;68189;-73
2021/12/14 10:48:20;;;;;;;10.20;6.90;;;;;;;2.49;77.01;98085.12;108197;1275;58925;-68
2021/12/14 10:50:55;;;;;;;12.60;8.70;;;;;;;2.51;77.49;98085.57;108180;1273;58916;-68
2021/12/14 10:53:28;;;;;;;10.20;7.20;;;;;;;2.51;77.25;98084.55;108456;1269;70571;-68
2021/12/14 10:56:11;;;;;;;9.50;6.60;;;;;;;2.55;77.42;98080.98;108199;1274;67674;-71
2021/12/14 10:58:44;;;;;;;9.10;6.30;;;;;;;2.59;77.15;98083.81;108435;1272;68757;-68
2021/12/14 11:01:23;;;;;;;11.80;8.10;;;;;;;2.60;77.09;98083.08;108301;1273;58904;-75
2021/12/14 11:03:58;;;;;;;11.20;7.80;;;;;;;2.61;77.12;98080.82;108335;1271;59324;-68
2021/12/14 11:06:31;;;;;;;14.20;9.30;;;;;;;2.67;77.26;98085.64;108346;1273;70740;-69
2021/12/14 11:11:49;;;;;;;10.90;8.40;;;;;;;2.68;76.64;98084.04;108330;1273;69314;-67
2021/12/14 11:14:28;;;;;;;10.50;8.20;;;;;;;2.67;77.00;98080.80;108335;1274;58913;-69
2021/12/14 11:20:11;;;;;;;12.90;9.60;;;;;;;2.71;76.60;98073.96;108272;1273;71471;-69
2021/12/14 11:23:10;;;;;;;10.70;7.80;;;;;;;2.63;76.53;98071.80;108326;1273;68494;-68
2021/12/14 11:25:51;;;;;;;8.10;6.00;;;;;;;2.65;76.66;98069.34;108159;1273;68665;-75
2021/12/14 11:28:36;;;;;;;12.00;8.20;;;;;;;2.69;76.47;98069.73;108250;1272;58929;-70
2021/12/14 11:31:19;;;;;;;8.90;7.40;;;;;;;2.68;76.30;98065.27;108318;1273;58906;-69
2021/12/14 11:33:50;;;;;;;12.20;8.70;;;;;;;2.72;77.03;98062.56;108168;1272;70273;-73
2021/12/14 11:36:20;;;;;;;12.80;8.60;;;;;;;2.76;76.25;98060.23;108322;1272;67918;-75
2021/12/14 11:38:58;;;;;;;9.20;7.10;;;;;;;2.73;76.13;98062.02;108098;1271;70050;-76
2021/12/14 11:41:51;;;;;;;10.40;7.40;;;;;;;2.72;76.22;98057.73;108171;1273;58925;-76
2021/12/14 11:44:36;;;;;;;11.10;7.80;;;;;;;2.72;75.74;98060.00;108268;1273;58919;-74
2021/12/14 11:50:28;;;;;;;9.90;7.40;;;;;;;2.67;75.82;98062.21;108196;1273;68609;-73
2021/12/14 11:53:15;;;;;;;8.30;6.10;;;;;;;2.64;75.85;98058.54;108199;1272;68938;-69
2021/12/14 11:56:09;;;;;;;8.10;5.60;;;;;;;2.69;76.04;98055.11;108162;1275;58928;-75
2021/12/14 11:58:45;;;;;;;11.00;9.10;;;;;;;2.73;75.92;98053.77;108231;1273;58855;-73
2021/12/14 12:01:32;;;;;;;8.10;6.10;;;;;;;2.77;75.72;98054.68;108223;1273;71443;-68
2021/12/14 12:04:08;;;;;;;7.80;5.80;;;;;;;2.79;75.29;98055.30;108107;1274;68698;-74
2021/12/14 12:09:41;;;;;;;11.20;8.20;;;;;;;2.85;75.45;98055.13;108157;1274;58938;-69
2021/12/14 12:12:13;;;;;;;10.60;8.30;;;;;;;2.84;75.40;98053.79;108105;1273;58842;-70
2021/12/14 12:15:09;;;;;;;10.00;6.60;;;;;;;2.85;75.68;98052.54;108137;1272;70852;-73
2021/12/14 12:18:00;;;;;;;9.90;6.30;;;;;;;2.85;75.40;98052.89;108174;1272;66825;-75
2021/12/14 12:20:31;;;;;;;7.70;6.30;;;;;;;2.86;75.52;98053.89;108083;1272;68584;-69
2021/12/14 12:23:06;;;;;;;8.90;6.50;;;;;;;2.83;75.09;98053.96;108143;1273;58839;-74
2021/12/14 12:25:42;;;;;;;10.10;7.90;;;;;;;2.79;75.34;98053.75;108270;1273;58897;-74
2021/12/14 12:28:22;;;;;;;10.50;8.20;;;;;;;2.76;75.58;98055.05;108284;1274;70799;-74
2021/12/14 12:30:51;;;;;;;9.00;6.50;;;;;;;2.74;75.55;98054.60;108252;1273;68731;-69
2021/12/14 12:33:26;;;;;;;8.30;5.70;;;;;;;2.74;75.39;98053.40;108199;1273;69530;-69
2021/12/14 12:36:01;;;;;;;10.40;7.50;;;;;;;2.75;75.77;98056.27;108317;1273;58954;-71
2021/12/14 12:38:33;;;;;;;8.10;6.70;;;;;;;2.75;75.64;98052.50;108270;1273;58867;-69
2021/12/14 12:41:07;;;;;;;9.80;6.60;;;;;;;2.76;75.56;98055.73;108340;1273;71070;-73
2021/12/14 12:43:48;;;;;;;8.60;6.30;;;;;;;2.71;75.36;98050.73;108274;1272;68737;-71
2021/12/14 12:46:25;;;;;;;9.30;6.40;;;;;;;2.69;75.88;98050.11;108317;1272;69505;-73
2021/12/14 12:48:59;;;;;;;9.80;6.80;;;;;;;2.68;75.74;98054.77;108356;1269;58890;-72
2021/12/14 12:51:56;;;;;;;10.80;7.60;;;;;;;2.65;76.25;98054.69;108328;1271;58877;-69
2021/12/14 12:54:37;;;;;;;9.60;6.80;;;;;;;2.64;75.96;98053.89;108268;1273;69984;-72
2021/12/14 12:57:33;;;;;;;12.20;8.30;;;;;;;2.62;75.43;98059.61;108339;1273;67996;-70